Time;durP1;ratioP1;P1;durP2;ratioP2;P2;SDS_P1;SDS_P2;PMS_P1;PMS_P2;Temp;Humidity;BMP_temperature;BMP_pressure;BME280_temperature;BME280_humidity;BME280_pressure;Samples;Min_cycle;Max_cycle;Signal;HPM_P1;HPM_P2
2023/06/13 00:02:06;;;;;;;7.18;3.80;;;;;;;19.84;35.01;101786.69;7390502;19;20027;-58
2023/06/13 00:04:34;;;;;;;9.00;3.63;;;;;;;19.69;35.65;101793.56;7389397;19;20022;-57
2023/06/13 00:07:01;;;;;;;7.63;3.53;;;;;;;19.62;35.63;101787.06;7389637;19;20022;-57
2023/06/13 00:09:30;;;;;;;8.85;3.50;;;;;;;19.55;35.86;101785.94;7389165;19;20494;-58
2023/06/13 00:11:57;;;;;;;8.80;3.75;;;;;;;19.54;35.99;101792.31;7388492;19;20037;-58
2023/06/13 00:14:25;;;;;;;8.75;3.92;;;;;;;19.55;36.18;101792.16;7390586;19;20487;-58
2023/06/13 00:16:54;;;;;;;6.70;3.50;;;;;;;19.54;36.09;101789.63;7390218;19;20058;-58
2023/06/13 00:19:23;;;;;;;7.63;3.58;;;;;;;19.39;36.14;101782.00;7390753;19;20027;-58
2023/06/13 00:21:51;;;;;;;7.07;3.50;;;;;;;19.38;36.08;101792.88;7389935;19;20018;-57
2023/06/13 00:24:18;;;;;;;5.95;3.20;;;;;;;19.40;35.89;101794.44;7390319;19;20011;-53
2023/06/13 00:26:45;;;;;;;8.02;3.45;;;;;;;19.29;36.36;101793.75;7390259;19;20018;-54
2023/06/13 00:29:13;;;;;;;6.95;3.40;;;;;;;19.21;36.28;101781.91;7390142;19;20486;-53
2023/06/13 00:31:40;;;;;;;7.75;3.78;;;;;;;19.23;35.86;101784.44;7389745;19;20021;-55
2023/06/13 00:34:07;;;;;;;8.73;3.67;;;;;;;19.18;36.34;101786.72;7389712;19;20018;-54
2023/06/13 00:36:37;;;;;;;7.55;3.38;;;;;;;19.19;36.00;101783.91;7389731;19;20022;-53
2023/06/13 00:39:06;;;;;;;7.38;3.42;;;;;;;19.11;36.14;101778.38;7389923;19;20014;-50
2023/06/13 00:41:33;;;;;;;8.80;3.40;;;;;;;19.14;35.67;101782.63;7389207;19;20495;-55
2023/06/13 00:44:01;;;;;;;10.13;3.97;;;;;;;19.15;35.79;101779.78;7389834;19;20369;-55
2023/06/13 00:46:32;;;;;;;8.85;3.78;;;;;;;19.17;35.83;101787.72;7387251;19;20498;-55
2023/06/13 00:49:01;;;;;;;8.52;3.63;;;;;;;19.14;35.62;101782.63;7389295;19;20216;-51
2023/06/13 00:51:29;;;;;;;10.25;4.35;;;;;;;19.11;35.93;101788.28;7395426;19;20031;-50
2023/06/13 00:54:00;;;;;;;9.35;3.85;;;;;;;19.07;35.79;101790.38;7397305;19;20040;-53
2023/06/13 00:56:29;;;;;;;8.43;3.88;;;;;;;18.93;36.24;101786.31;7396134;19;20022;-53
2023/06/13 00:59:01;;;;;;;9.70;3.67;;;;;;;19.02;35.91;101783.78;7397651;19;20371;-50
2023/06/13 01:01:30;;;;;;;7.13;3.70;;;;;;;18.99;35.93;101785.72;7397047;19;20018;-56
2023/06/13 01:03:59;;;;;;;9.00;3.85;;;;;;;18.92;36.08;101784.59;7396750;19;20110;-58
2023/06/13 01:06:30;;;;;;;7.55;4.03;;;;;;;18.86;36.55;101790.56;7396367;19;20025;-56
2023/06/13 01:09:00;;;;;;;7.95;3.63;;;;;;;18.85;36.15;101779.94;7396758;19;20043;-56
2023/06/13 01:11:49;;;;;;;8.10;3.53;;;;;;;18.84;36.18;101786.31;7395895;19;20018;-56
2023/06/13 01:14:40;;;;;;;7.43;3.97;;;;;;;18.74;36.41;101784.50;7396367;19;20029;-56
2023/06/13 01:17:14;;;;;;;9.35;3.90;;;;;;;18.73;36.18;101782.81;7395807;19;20014;-58
2023/06/13 01:19:47;;;;;;;8.88;4.13;;;;;;;18.75;35.97;101779.97;7396254;19;20015;-58
2023/06/13 01:22:23;;;;;;;8.50;3.93;;;;;;;18.84;36.11;101783.63;7395664;19;20078;-57
2023/06/13 01:24:58;;;;;;;8.13;4.20;;;;;;;18.83;35.87;101779.25;7396367;19;20018;-57
2023/06/13 01:27:27;;;;;;;6.50;3.80;;;;;;;18.69;36.17;101775.97;7394640;19;20015;-58
2023/06/13 01:30:00;;;;;;;9.00;4.15;;;;;;;18.64;36.76;101772.88;7396142;19;20034;-57
2023/06/13 01:32:29;;;;;;;7.15;3.90;;;;;;;18.57;36.58;101774.41;7393335;19;20014;-59
2023/06/13 01:34:58;;;;;;;8.70;4.28;;;;;;;18.51;36.55;101775.84;7395930;19;20014;-57
2023/06/13 01:37:25;;;;;;;9.52;4.25;;;;;;;18.49;36.23;101775.09;7393953;19;20015;-58
2023/06/13 01:39:52;;;;;;;8.25;4.03;;;;;;;18.51;36.19;101775.84;7395181;19;20014;-57
2023/06/13 01:42:20;;;;;;;8.35;3.90;;;;;;;18.45;36.16;101770.16;7395191;19;20026;-57
2023/06/13 01:44:47;;;;;;;7.10;4.00;;;;;;;18.34;36.01;101773.81;7393453;19;20035;-57
2023/06/13 01:47:15;;;;;;;6.78;3.50;;;;;;;18.38;35.62;101772.56;7392171;19;20026;-57
2023/06/13 01:49:53;;;;;;;7.47;3.85;;;;;;;18.44;35.75;101772.00;7395652;19;20026;-57
2023/06/13 01:52:42;;;;;;;7.97;3.70;;;;;;;18.44;35.55;101772.00;7392916;19;20035;-57
2023/06/13 01:55:16;;;;;;;6.97;3.88;;;;;;;18.33;35.68;101772.13;7395327;19;20494;-57
2023/06/13 01:57:51;;;;;;;6.97;3.90;;;;;;;18.32;35.70;101769.59;7393054;19;20010;-57
2023/06/13 02:00:20;;;;;;;7.05;3.90;;;;;;;18.25;35.77;101769.28;7395065;19;20023;-57
2023/06/13 02:02:48;;;;;;;8.80;3.80;;;;;;;18.26;35.96;101768.31;7391799;19;20043;-57
2023/06/13 02:05:19;;;;;;;9.27;3.70;;;;;;;18.28;36.06;101774.38;7394856;19;20036;-57
2023/06/13 02:07:46;;;;;;;6.63;3.28;;;;;;;18.29;36.07;101765.34;7391420;19;20022;-57
2023/06/13 02:10:14;;;;;;;7.65;3.60;;;;;;;18.29;36.08;101759.16;7394631;19;20039;-58
2023/06/13 02:12:41;;;;;;;7.75;3.38;;;;;;;18.20;36.34;101766.16;7393639;19;20022;-57
2023/06/13 02:15:10;;;;;;;6.10;3.25;;;;;;;18.05;36.33;101771.09;7394422;19;20022;-58
2023/06/13 02:17:37;;;;;;;6.60;3.38;;;;;;;18.02;36.16;101772.19;7392473;19;20019;-57
2023/06/13 02:20:06;;;;;;;8.38;3.63;;;;;;;17.95;36.20;101764.84;7394502;19;20022;-56
2023/06/13 02:22:33;;;;;;;7.40;3.90;;;;;;;17.87;36.16;101773.56;7393579;19;20027;-58
2023/06/13 02:25:03;;;;;;;8.70;3.65;;;;;;;17.82;36.42;101764.22;7394124;19;20029;-58
2023/06/13 02:27:30;;;;;;;9.18;3.60;;;;;;;17.88;36.40;101755.66;7391655;19;20019;-58
2023/06/13 02:29:57;;;;;;;8.38;3.90;;;;;;;17.88;36.38;101763.69;7393908;19;20025;-57
2023/06/13 02:32:26;;;;;;;9.70;4.25;;;;;;;17.82;36.52;101773.13;7393598;19;20010;-57
2023/06/13 02:34:53;;;;;;;8.30;4.03;;;;;;;17.82;36.69;101761.53;7393732;19;20015;-54
2023/06/13 02:37:21;;;;;;;8.55;3.90;;;;;;;17.69;36.77;101773.31;7392416;19;20045;-55
2023/06/13 02:39:48;;;;;;;7.05;4.10;;;;;;;17.64;36.75;101772.03;7392333;19;20019;-56
2023/06/13 02:42:15;;;;;;;10.18;4.30;;;;;;;17.66;37.20;101768.22;7392956;19;20022;-55
2023/06/13 02:44:44;;;;;;;7.85;4.20;;;;;;;17.68;36.88;101765.41;7393386;19;20050;-55
2023/06/13 02:47:11;;;;;;;9.43;4.10;;;;;;;17.74;36.83;101762.19;7392355;19;20039;-56
2023/06/13 02:49:38;;;;;;;10.52;4.05;;;;;;;17.72;36.83;101765.00;7393146;19;20018;-56
2023/06/13 02:52:06;;;;;;;7.80;3.80;;;;;;;17.68;37.17;101766.25;7391178;19;20487;-54
2023/06/13 02:54:33;;;;;;;8.85;3.83;;;;;;;17.71;37.15;101763.31;7391148;19;20011;-57
2023/06/13 02:57:00;;;;;;;8.45;4.25;;;;;;;17.67;37.13;101764.56;7392336;19;20018;-55
2023/06/13 02:59:28;;;;;;;8.73;3.63;;;;;;;17.65;37.15;101771.88;7393103;19;20014;-56
2023/06/13 03:01:55;;;;;;;7.45;3.63;;;;;;;17.56;37.64;101767.34;7392459;19;20022;-56
2023/06/13 03:04:23;;;;;;;7.15;3.85;;;;;;;17.44;37.71;101769.25;7391869;19;20717;-58
2023/06/13 03:06:51;;;;;;;8.93;3.80;;;;;;;17.42;37.72;101760.50;7391845;19;20022;-56
2023/06/13 03:09:18;;;;;;;9.32;3.47;;;;;;;17.33;37.91;101769.34;7392829;19;20561;-56
2023/06/13 03:11:45;;;;;;;9.88;3.83;;;;;;;17.25;38.17;101769.16;7391570;19;20018;-57
2023/06/13 03:14:13;;;;;;;10.55;3.85;;;;;;;17.28;38.12;101769.72;7392086;19;20023;-55
2023/06/13 03:16:40;;;;;;;7.40;3.72;;;;;;;17.28;38.27;101768.84;7391988;19;20048;-56
2023/06/13 03:19:07;;;;;;;8.25;3.55;;;;;;;17.17;38.36;101763.56;7392168;19;20527;-56
2023/06/13 03:21:35;;;;;;;8.45;3.50;;;;;;;17.05;38.68;101765.47;7391792;19;20018;-56
2023/06/13 03:24:03;;;;;;;6.88;3.78;;;;;;;17.01;38.88;101770.22;7392205;19;20040;-55
2023/06/13 03:26:37;;;;;;;7.30;3.72;;;;;;;17.01;38.75;101764.03;7392064;19;20031;-55
2023/06/13 03:29:06;;;;;;;8.15;3.70;;;;;;;17.07;38.80;101765.34;7390888;19;20018;-55
2023/06/13 03:31:33;;;;;;;8.18;3.85;;;;;;;17.04;38.80;101771.81;7390593;19;20128;-55
2023/06/13 03:34:01;;;;;;;7.50;3.65;;;;;;;16.97;38.81;101762.59;7392259;19;20022;-57
2023/06/13 03:36:28;;;;;;;8.18;3.60;;;;;;;17.02;38.73;101773.78;7391489;19;20024;-56
2023/06/13 03:38:55;;;;;;;9.43;3.90;;;;;;;16.95;38.89;101768.09;7391519;19;20490;-55
2023/06/13 03:41:23;;;;;;;8.32;3.83;;;;;;;16.83;39.50;101771.81;7390868;19;20043;-56
2023/06/13 03:43:50;;;;;;;7.65;3.60;;;;;;;16.78;39.51;101765.97;7391945;19;20026;-56
2023/06/13 03:46:17;;;;;;;6.32;3.40;;;;;;;16.78;39.81;101768.66;7390822;19;20043;-55
2023/06/13 03:48:44;;;;;;;8.80;3.70;;;;;;;16.80;39.94;101766.72;7390073;19;20042;-55
2023/06/13 03:51:12;;;;;;;9.27;3.58;;;;;;;16.84;39.96;101767.31;7390394;19;20022;-55
2023/06/13 03:53:39;;;;;;;10.00;3.80;;;;;;;16.88;40.03;101771.41;7391774;19;20018;-56
2023/06/13 03:56:06;;;;;;;6.35;3.53;;;;;;;16.86;40.01;101770.69;7391682;19;20018;-59
2023/06/13 03:58:34;;;;;;;8.65;3.85;;;;;;;16.93;39.96;101772.72;7391705;19;20022;-58
2023/06/13 04:01:01;;;;;;;10.05;3.95;;;;;;;16.83;40.31;101777.16;7389097;19;20019;-56
2023/06/13 04:03:29;;;;;;;7.03;3.80;;;;;;;16.86;40.16;101779.56;7391432;19;20068;-57
2023/06/13 04:05:57;;;;;;;6.65;3.63;;;;;;;16.85;40.33;101783.22;7391104;19;20018;-57
2023/06/13 04:08:24;;;;;;;7.57;3.45;;;;;;;16.92;40.25;101775.53;7388184;19;20046;-57
2023/06/13 04:10:51;;;;;;;6.47;3.47;;;;;;;16.80;40.70;101780.09;7389947;19;20022;-57
2023/06/13 04:13:19;;;;;;;8.45;3.67;;;;;;;16.81;40.54;101779.09;7390398;19;20509;-56
2023/06/13 04:15:46;;;;;;;7.43;3.20;;;;;;;16.83;40.65;101779.84;7390754;19;20015;-56
2023/06/13 04:18:17;;;;;;;7.07;3.47;;;;;;;16.83;40.78;101787.84;7389326;19;20491;-56
2023/06/13 04:20:44;;;;;;;6.50;3.55;;;;;;;16.85;40.83;101790.41;7388764;19;20108;-57
2023/06/13 04:23:13;;;;;;;9.10;3.50;;;;;;;16.89;40.93;101791.84;7390923;19;20355;-57
2023/06/13 04:25:40;;;;;;;5.70;2.90;;;;;;;16.90;40.92;101785.50;7394290;19;20014;-57
2023/06/13 04:28:08;;;;;;;7.45;3.33;;;;;;;16.89;41.04;101783.81;7395793;19;20022;-60
2023/06/13 04:30:36;;;;;;;7.70;2.92;;;;;;;16.87;41.05;101783.09;7397853;19;20408;-58
2023/06/13 04:33:06;;;;;;;6.43;2.97;;;;;;;16.83;41.21;101784.31;7397417;19;20102;-58
2023/06/13 04:35:37;;;;;;;5.40;3.10;;;;;;;16.93;40.90;101791.44;7398714;19;20319;-59
2023/06/13 04:38:05;;;;;;;6.78;2.80;;;;;;;16.93;41.19;101786.09;7395599;19;20019;-58
2023/06/13 04:40:33;;;;;;;8.20;2.97;;;;;;;16.87;41.68;101791.97;7396868;19;20022;-58
2023/06/13 04:43:03;;;;;;;7.72;2.92;;;;;;;16.93;41.65;101786.09;7397581;19;20033;-58
2023/06/13 04:45:35;;;;;;;4.53;2.58;;;;;;;17.00;41.69;101784.59;7397814;19;20503;-57
2023/06/13 04:48:03;;;;;;;7.93;3.25;;;;;;;16.99;41.92;101780.22;7396114;19;20021;-59
2023/06/13 04:50:31;;;;;;;6.82;2.50;;;;;;;16.98;42.28;101783.03;7397727;19;20050;-59
2023/06/13 04:52:58;;;;;;;5.05;2.40;;;;;;;16.93;42.05;101785.25;7397563;19;20040;-59
2023/06/13 04:55:29;;;;;;;5.32;2.50;;;;;;;16.89;42.44;101784.66;7396719;19;20022;-59
2023/06/13 04:57:56;;;;;;;5.65;2.70;;;;;;;16.93;42.45;101782.56;7396210;19;20036;-59
2023/06/13 05:00:24;;;;;;;5.60;2.55;;;;;;;16.94;42.64;101787.81;7397737;19;20022;-59
2023/06/13 05:02:52;;;;;;;7.07;2.70;;;;;;;16.90;43.04;101786.34;7397243;19;20032;-59
2023/06/13 05:05:20;;;;;;;5.70;2.45;;;;;;;16.92;42.93;101780.88;7397669;19;20015;-59
2023/06/13 05:07:49;;;;;;;4.78;2.30;;;;;;;16.94;43.03;101782.47;7395894;19;20480;-59
2023/06/13 05:10:16;;;;;;;5.72;2.40;;;;;;;16.99;42.87;101780.22;7397151;19;20011;-59
2023/06/13 05:12:45;;;;;;;6.38;2.50;;;;;;;17.00;42.99;101784.59;7394845;19;20026;-59
2023/06/13 05:15:12;;;;;;;5.53;2.50;;;;;;;17.08;42.91;101781.28;7395929;19;20023;-59
2023/06/13 05:17:39;;;;;;;5.70;2.35;;;;;;;17.13;42.90;101784.41;7393669;19;20022;-59
2023/06/13 05:20:07;;;;;;;5.47;2.42;;;;;;;17.08;43.38;101793.81;7396606;19;20035;-55
2023/06/13 05:22:34;;;;;;;4.97;2.20;;;;;;;17.23;43.52;101790.69;7395762;19;20018;-56
2023/06/13 05:25:02;;;;;;;5.97;2.20;;;;;;;17.27;43.12;101794.78;7396951;19;20022;-56
2023/06/13 05:27:29;;;;;;;6.93;2.30;;;;;;;17.24;43.03;101795.03;7392956;19;20387;-56
2023/06/13 05:29:56;;;;;;;7.60;2.30;;;;;;;17.21;43.72;101791.81;7395160;19;20019;-56
2023/06/13 05:32:23;;;;;;;5.10;2.38;;;;;;;17.22;43.71;101794.34;7394958;19;20031;-55
2023/06/13 05:34:50;;;;;;;7.05;2.40;;;;;;;17.25;43.86;101786.06;7396032;19;20035;-55
2023/06/13 05:37:18;;;;;;;4.38;2.33;;;;;;;17.32;43.77;101788.19;7394621;19;20022;-56
2023/06/13 05:39:45;;;;;;;3.33;2.03;;;;;;;17.33;44.24;101788.06;7396339;19;20474;-56
2023/06/13 05:42:13;;;;;;;3.97;2.13;;;;;;;17.41;44.25;101792.78;7394626;19;20029;-56
2023/06/13 05:44:40;;;;;;;5.35;2.50;;;;;;;17.42;44.01;101787.28;7395803;19;20030;-57
2023/06/13 05:47:07;;;;;;;8.10;2.20;;;;;;;17.48;43.95;101794.78;7394626;19;20047;-57
2023/06/13 05:49:34;;;;;;;4.50;2.30;;;;;;;17.49;44.17;101792.97;7393922;19;20026;-57
2023/06/13 05:52:02;;;;;;;6.57;2.30;;;;;;;17.50;44.28;101795.50;7393091;19;20022;-57
2023/06/13 05:54:29;;;;;;;6.10;2.42;;;;;;;17.58;43.94;101791.28;7395709;19;20494;-58
2023/06/13 05:56:56;;;;;;;6.22;2.15;;;;;;;17.64;43.63;101796.13;7394705;19;20026;-57
2023/06/13 05:59:23;;;;;;;6.32;2.42;;;;;;;17.75;43.68;101788.03;7395465;19;20026;-57
2023/06/13 06:01:51;;;;;;;6.20;2.40;;;;;;;17.75;44.05;101783.53;7394543;19;20042;-57
2023/06/13 06:04:18;;;;;;;6.35;2.17;;;;;;;17.76;43.81;101790.56;7395487;19;20018;-57
2023/06/13 06:06:45;;;;;;;9.45;2.42;;;;;;;17.85;43.76;101785.38;7394270;19;20018;-57
2023/06/13 06:09:12;;;;;;;6.55;2.25;;;;;;;17.88;43.85;101785.13;7393880;19;20019;-57
2023/06/13 06:11:40;;;;;;;5.35;2.22;;;;;;;17.93;43.91;101777.50;7394682;19;20095;-57
2023/06/13 06:14:07;;;;;;;5.20;2.10;;;;;;;17.91;44.02;101777.66;7394305;19;20018;-57
2023/06/13 06:16:34;;;;;;;5.28;2.13;;;;;;;17.98;43.79;101769.94;7392623;19;20372;-58
2023/06/13 06:19:01;;;;;;;9.13;2.30;;;;;;;18.08;43.73;101767.25;7394970;19;20019;-57
2023/06/13 06:21:29;;;;;;;7.53;2.03;;;;;;;18.19;43.24;101764.47;7394076;19;20029;-58
2023/06/13 06:23:57;;;;;;;5.18;2.00;;;;;;;18.21;43.09;101765.19;7393098;19;20490;-58
2023/06/13 06:26:24;;;;;;;5.72;2.13;;;;;;;18.24;42.74;101768.44;7394620;19;20022;-55
2023/06/13 06:28:52;;;;;;;6.03;2.30;;;;;;;18.30;42.56;101759.00;7391848;19;20118;-58
2023/06/13 06:31:19;;;;;;;3.90;2.03;;;;;;;18.38;42.62;101760.97;7393410;19;20031;-57
2023/06/13 06:33:47;;;;;;;9.07;2.28;;;;;;;18.41;42.34;101763.38;7394237;19;20042;-58
2023/06/13 06:36:15;;;;;;;7.72;2.38;;;;;;;18.50;42.06;101765.22;7394305;19;20394;-58
2023/06/13 06:38:42;;;;;;;6.35;1.88;;;;;;;18.63;42.20;101762.28;7391841;19;20018;-58
2023/06/13 06:41:10;;;;;;;5.88;2.00;;;;;;;18.59;41.79;101759.03;7392298;19;20034;-57
2023/06/13 06:43:37;;;;;;;6.90;2.20;;;;;;;18.62;41.66;101761.44;7392629;19;20046;-58
2023/06/13 06:46:04;;;;;;;8.63;2.28;;;;;;;18.67;41.33;101758.31;7392271;19;20015;-58
2023/06/13 06:48:35;;;;;;;7.85;3.13;;;;;;;18.79;41.08;101759.91;7389917;19;20023;-58
2023/06/13 06:51:02;;;;;;;6.90;2.15;;;;;;;18.82;41.01;101765.00;7391976;19;20027;-58
2023/06/13 06:53:30;;;;;;;10.13;3.40;;;;;;;18.87;41.25;101759.19;7392669;19;20010;-57
2023/06/13 06:55:57;;;;;;;6.80;2.50;;;;;;;18.90;40.65;101750.88;7392415;19;20026;-57
2023/06/13 06:58:24;;;;;;;5.13;2.03;;;;;;;18.92;40.62;101757.75;7391807;19;20019;-57
2023/06/13 07:00:51;;;;;;;6.20;2.22;;;;;;;19.00;40.09;101757.03;7390447;19;20479;-57
2023/06/13 07:03:19;;;;;;;5.60;2.00;;;;;;;19.04;40.06;101752.25;7392722;19;20022;-57
2023/06/13 07:05:46;;;;;;;4.60;2.10;;;;;;;19.08;40.50;101759.00;7389995;19;20029;-58
2023/06/13 07:08:13;;;;;;;6.00;2.10;;;;;;;19.06;40.83;101758.31;7391708;19;20046;-57
2023/06/13 07:10:41;;;;;;;5.97;2.10;;;;;;;19.11;40.99;101764.94;7390816;19;20550;-57
2023/06/13 07:13:08;;;;;;;7.35;2.33;;;;;;;19.13;40.67;101762.97;7392468;19;20023;-57
2023/06/13 07:15:35;;;;;;;5.15;1.98;;;;;;;19.16;40.89;101760.00;7389672;19;20078;-57
2023/06/13 07:18:03;;;;;;;6.55;2.08;;;;;;;19.27;40.30;101766.19;7390995;19;20490;-57
2023/06/13 07:20:30;;;;;;;6.28;2.08;;;;;;;19.33;39.86;101761.09;7390506;19;20042;-58
2023/06/13 07:22:58;;;;;;;5.32;2.13;;;;;;;19.37;39.67;101761.66;7392016;19;20106;-58
2023/06/13 07:25:25;;;;;;;4.45;2.13;;;;;;;19.44;39.38;101763.59;7390101;19;20022;-57
2023/06/13 07:27:52;;;;;;;5.78;1.92;;;;;;;19.43;39.56;101761.91;7391466;19;20028;-57
2023/06/13 07:30:19;;;;;;;6.60;1.95;;;;;;;19.44;39.55;101758.22;7389580;19;20098;-58
2023/06/13 07:32:46;;;;;;;5.82;1.75;;;;;;;19.54;39.51;101755.53;7391171;19;20014;-61
2023/06/13 07:35:16;;;;;;;4.30;1.85;;;;;;;19.56;39.98;101763.44;7390569;19;20006;-57
2023/06/13 07:37:44;;;;;;;7.00;2.25;;;;;;;19.60;40.05;101772.88;7390472;19;20424;-58
2023/06/13 07:40:11;;;;;;;6.10;1.90;;;;;;;19.66;39.58;101773.19;7391667;19;20022;-58
2023/06/13 07:42:39;;;;;;;6.75;2.10;;;;;;;19.69;39.13;101772.91;7390151;19;20014;-58
2023/06/13 07:45:06;;;;;;;9.07;2.10;;;;;;;19.72;39.25;101769.03;7391260;19;20047;-58
2023/06/13 07:47:37;;;;;;;5.43;2.00;;;;;;;19.76;39.08;101772.28;7390288;19;20018;-57
2023/06/13 07:50:04;;;;;;;6.15;2.03;;;;;;;19.78;39.47;101770.31;7387552;19;20037;-58
2023/06/13 07:52:32;;;;;;;4.30;1.90;;;;;;;19.77;39.23;101765.94;7389045;19;20019;-58
2023/06/13 07:54:59;;;;;;;6.07;2.33;;;;;;;19.77;39.69;101760.56;7389995;19;20036;-58
2023/06/13 07:57:27;;;;;;;5.22;2.00;;;;;;;19.92;39.34;101767.97;7389605;19;20014;-58
2023/06/13 08:00:16;;;;;;;5.93;1.83;;;;;;;19.91;39.61;101763.56;7388966;19;20057;-58
2023/06/13 08:02:44;;;;;;;6.03;1.73;;;;;;;19.98;39.43;101765.69;7388769;19;20022;-57
2023/06/13 08:05:13;;;;;;;4.18;1.85;;;;;;;19.99;38.96;101757.44;7389829;19;20014;-58
2023/06/13 08:07:41;;;;;;;7.28;2.05;;;;;;;20.08;38.25;101755.72;7390150;19;20014;-57
2023/06/13 08:10:08;;;;;;;8.43;2.15;;;;;;;20.06;37.93;101758.53;7388401;19;20026;-57
2023/06/13 08:12:35;;;;;;;6.70;2.70;;;;;;;20.12;38.68;101767.88;7390087;19;20015;-59
2023/06/13 08:15:03;;;;;;;5.00;2.08;;;;;;;20.23;38.77;101758.75;7390600;19;20098;-56
2023/06/13 08:17:30;;;;;;;3.78;1.75;;;;;;;20.29;38.66;101764.34;7389302;19;20023;-56
2023/06/13 08:19:58;;;;;;;6.40;2.25;;;;;;;20.34;38.57;101756.69;7390251;19;20023;-56
2023/06/13 08:22:26;;;;;;;5.43;2.15;;;;;;;20.34;38.79;101756.69;7389035;19;20022;-56
2023/06/13 08:24:53;;;;;;;6.45;2.10;;;;;;;20.44;38.49;101760.13;7388287;19;20089;-56
2023/06/13 08:27:21;;;;;;;4.32;2.10;;;;;;;20.52;37.30;101755.88;7388608;19;20018;-56
2023/06/13 08:29:48;;;;;;;6.57;2.30;;;;;;;20.55;37.93;101755.56;7388493;19;20518;-57
2023/06/13 08:32:15;;;;;;;7.30;2.30;;;;;;;20.61;38.43;101747.72;7386157;19;20018;-56
2023/06/13 08:34:42;;;;;;;5.90;2.15;;;;;;;20.66;38.09;101756.19;7390479;19;20022;-56
2023/06/13 08:37:10;;;;;;;6.30;1.95;;;;;;;20.74;38.37;101758.09;7388083;19;20017;-59
2023/06/13 08:39:37;;;;;;;4.82;2.08;;;;;;;20.82;37.67;101757.31;7389773;19;20085;-56
2023/06/13 08:42:10;;;;;;;6.10;2.30;;;;;;;20.85;36.99;101759.72;7386164;19;20021;-56
2023/06/13 08:44:39;;;;;;;6.30;2.20;;;;;;;20.86;37.22;101756.84;7389774;19;20031;-56
2023/06/13 08:47:07;;;;;;;4.88;2.40;;;;;;;20.94;36.17;101754.22;7386027;19;20436;-56
2023/06/13 08:49:55;;;;;;;4.57;2.30;;;;;;;20.93;36.17;101749.84;7388285;19;20047;-56
2023/06/13 08:52:25;;;;;;;6.90;2.25;;;;;;;21.03;36.35;101747.06;7387305;19;20015;-56
2023/06/13 08:58:15;;;;;;;4.82;2.10;;;;;;;21.06;35.63;101744.06;7387032;19;20002;-56
2023/06/13 09:00:45;;;;;;;7.15;2.40;;;;;;;21.06;35.60;101741.38;7388665;19;20088;-57
2023/06/13 09:03:12;;;;;;;8.18;2.47;;;;;;;21.16;35.24;101746.66;7389290;19;20093;-56
2023/06/13 09:05:41;;;;;;;5.18;2.42;;;;;;;21.19;35.03;101740.94;7388373;19;20021;-56
2023/06/13 09:08:09;;;;;;;5.07;2.40;;;;;;;21.24;35.37;101745.84;7387520;19;20043;-56
2023/06/13 09:10:41;;;;;;;8.05;2.17;;;;;;;21.30;35.18;101746.06;7388817;19;20119;-56
2023/06/13 09:13:12;;;;;;;6.90;2.05;;;;;;;21.30;34.55;101743.38;7396415;19;20014;-56
2023/06/13 09:15:41;;;;;;;5.30;2.30;;;;;;;21.34;34.66;101738.53;7395901;19;20015;-56
2023/06/13 09:18:10;;;;;;;5.10;2.30;;;;;;;21.35;34.33;101742.94;7392270;19;20082;-56
2023/06/13 09:20:37;;;;;;;6.10;2.20;;;;;;;21.43;34.53;101737.56;7393994;19;20028;-57
2023/06/13 09:23:05;;;;;;;4.38;2.13;;;;;;;21.50;34.59;101737.78;7396863;19;20045;-57
2023/06/13 09:25:35;;;;;;;5.00;2.30;;;;;;;21.56;34.19;101737.13;7394481;19;20498;-57
2023/06/13 09:28:40;;;;;;;5.18;2.05;;;;;;;21.71;33.53;101734.66;7393215;19;20018;-58
2023/06/13 09:31:10;;;;;;;8.63;2.72;;;;;;;21.61;33.68;101727.56;7394646;19;20126;-56
2023/06/13 09:33:38;;;;;;;4.18;2.15;;;;;;;21.60;33.21;101716.97;7396563;19;20028;-56
2023/06/13 09:36:06;;;;;;;4.30;2.25;;;;;;;21.62;33.56;101718.47;7394062;19;20522;-56
2023/06/13 09:38:35;;;;;;;3.25;1.92;;;;;;;21.76;33.30;101716.19;7393594;19;20019;-56
2023/06/13 09:41:04;;;;;;;7.63;2.30;;;;;;;21.76;33.77;101719.72;7394752;19;20038;-57
2023/06/13 09:43:32;;;;;;;4.07;2.13;;;;;;;21.75;33.90;101712.63;7394336;19;20094;-57
2023/06/13 09:46:00;;;;;;;5.53;2.17;;;;;;;21.87;34.20;101713.19;7392188;19;20010;-64
2023/06/13 09:48:28;;;;;;;4.20;2.05;;;;;;;21.92;34.13;101715.38;7393850;19;20023;-65
2023/06/13 09:50:55;;;;;;;6.78;2.20;;;;;;;21.95;33.58;101705.13;7390630;19;20467;-66
2023/06/13 09:53:25;;;;;;;7.22;2.20;;;;;;;21.97;33.23;101700.38;7393540;19;20025;-66
2023/06/13 09:55:52;;;;;;;10.40;5.30;;;;;;;22.10;32.92;101698.06;7393356;19;20030;-62
2023/06/13 09:58:20;;;;;;;7.43;5.47;;;;;;;22.17;32.29;101698.28;7393657;19;20010;-72
2023/06/13 10:00:59;;;;;;;7.82;3.70;;;;;;;22.09;32.09;101707.19;7394054;19;20011;-62
2023/06/13 10:03:28;;;;;;;8.55;6.10;;;;;;;22.12;31.77;101698.72;7395607;19;20042;-65
2023/06/13 10:06:00;;;;;;;6.78;3.13;;;;;;;22.16;31.17;101701.13;7394124;19;20014;-65
2023/06/13 10:08:28;;;;;;;5.05;2.50;;;;;;;22.14;31.58;101691.38;7391567;19;20018;-65
2023/06/13 10:10:58;;;;;;;6.53;2.20;;;;;;;22.21;30.82;101691.56;7391642;19;20064;-65
2023/06/13 10:13:29;;;;;;;6.53;2.60;;;;;;;22.18;31.35;101693.72;7394063;19;20450;-65
2023/06/13 10:16:00;;;;;;;5.13;2.65;;;;;;;22.25;31.94;101689.38;7394935;19;20475;-66
2023/06/13 10:18:39;;;;;;;5.07;2.60;;;;;;;22.37;31.08;101688.03;7391728;19;20035;-66
2023/06/13 10:23:49;;;;;;;8.32;3.70;;;;;;;22.38;31.29;101681.59;7352731;19;20065;-53
2023/06/13 10:26:35;;;;;;;6.43;2.60;;;;;;;22.53;31.69;101685.31;7396703;19;20045;-52
2023/06/13 10:29:19;;;;;;;5.43;2.47;;;;;;;22.65;31.19;101687.69;7396668;19;20019;-53
2023/06/13 10:32:03;;;;;;;5.82;2.55;;;;;;;22.53;30.99;101681.78;7393080;19;20017;-53
2023/06/13 10:34:55;;;;;;;12.70;2.75;;;;;;;22.52;31.18;101689.03;7383232;19;20485;-53
2023/06/13 10:37:53;;;;;;;9.45;2.80;;;;;;;22.53;30.87;101690.72;7393653;19;20011;-52
2023/06/13 10:40:20;;;;;;;6.60;2.47;;;;;;;22.57;31.11;101685.81;7388741;19;20025;-52
2023/06/13 10:42:55;;;;;;;5.88;2.60;;;;;;;22.62;31.29;101691.56;7390048;19;20014;-54
2023/06/13 10:47:59;;;;;;;7.50;2.50;;;;;;;22.62;31.13;101676.19;7375571;19;20037;-47
2023/06/13 10:50:26;;;;;;;4.35;2.50;;;;;;;22.69;31.65;101675.53;7383763;19;20071;-48
2023/06/13 10:52:56;;;;;;;5.38;2.28;;;;;;;22.73;31.55;101675.00;7388185;19;20039;-49
2023/06/13 10:55:25;;;;;;;7.95;3.03;;;;;;;22.79;31.34;101663.53;7377863;19;20052;-49
2023/06/13 10:57:56;;;;;;;6.15;2.47;;;;;;;22.80;31.48;101672.47;7389118;19;20015;-48
2023/06/13 11:00:33;;;;;;;6.35;2.60;;;;;;;22.90;30.95;101659.63;7388612;19;20046;-55
2023/06/13 11:03:09;;;;;;;6.30;2.58;;;;;;;22.95;31.02;101665.41;7391295;19;20022;-56
2023/06/13 11:05:49;;;;;;;9.75;2.50;;;;;;;23.00;31.06;101654.91;7392517;19;20035;-56
2023/06/13 11:08:22;;;;;;;8.75;2.75;;;;;;;23.08;30.94;101657.59;7392856;19;20022;-56
2023/06/13 11:10:51;;;;;;;7.80;2.47;;;;;;;23.01;30.53;101659.31;7389694;19;20501;-55
2023/06/13 11:13:26;;;;;;;7.93;2.35;;;;;;;22.99;30.64;101653.22;7392261;19;20038;-55
2023/06/13 11:15:55;;;;;;;4.18;2.47;;;;;;;22.98;30.57;101648.84;7392996;19;20014;-56
2023/06/13 11:18:22;;;;;;;6.90;2.95;;;;;;;23.04;30.95;101647.28;7392632;19;20034;-56
2023/06/13 11:20:51;;;;;;;7.25;2.40;;;;;;;23.17;31.32;101649.47;7390657;19;20507;-56
2023/06/13 11:23:22;;;;;;;5.45;2.58;;;;;;;23.20;30.78;101641.00;7390493;19;20525;-55
2023/06/13 11:25:50;;;;;;;7.28;2.60;;;;;;;23.28;30.30;101641.00;7392006;19;20074;-59
2023/06/13 11:28:18;;;;;;;5.72;2.35;;;;;;;23.21;30.12;101640.84;7391681;19;20018;-53
2023/06/13 11:30:47;;;;;;;5.57;2.72;;;;;;;23.22;30.06;101633.56;7390330;19;20032;-50
2023/06/13 11:33:16;;;;;;;4.55;2.45;;;;;;;23.21;30.50;101629.19;7391285;19;20010;-54
2023/06/13 11:35:50;;;;;;;7.85;2.55;;;;;;;23.35;30.53;101626.59;7391461;19;20026;-53
2023/06/13 11:38:27;;;;;;;5.70;2.63;;;;;;;23.44;30.03;101630.09;7391619;19;20021;-54
2023/06/13 11:40:58;;;;;;;4.43;2.30;;;;;;;23.33;30.34;101630.47;7391207;19;20029;-54
2023/06/13 11:43:28;;;;;;;6.22;2.60;;;;;;;23.34;30.48;101622.19;7391031;19;20025;-54